TFFFTNCM

Guest
Details From TFFF - Martinique/Aime Cesaire Intl
To TNCM - St Maarten - Princess Juliana Intl
Flight Number -
Tags decoded
Created
Modified
Stats Distance 247 nm / 458 km
Max Altitude 0 ft / 0 m
Waypoints 6
Social Downloads 9
Likes 0
Share VATSIM

Download

Looking for another format? Having issues loading an existing format? Contact us
Advertisement - Login to hide

Notes

Requested: TFFF PPR A517 TIKAL TNCM

Route

TFFF PPR A517 TIKAL TNCM

ID Type Via Altitude Latitude Longitude Leg Dist Tot Dist Heading (true) Name
O TFFF APT - 0 ft / 0 m 14.59103˚ -61.00317˚ - 0 nm - Martinique/Aime Cesaire Intl
PPR VOR - 0 ft / 0 m 16.26528˚ -61.54000˚ 105 nm 105 nm 343° / 343° POINTE A PITRE VOR-DME
BIMBO FIX A517 (AWY-LO) 0 ft / 0 m 16.62667˚ -61.96028˚ 32 nm 137 nm 312° / 312° -
SKB NDB A517 (AWY-LO) 0 ft / 0 m 17.29597˚ -62.74328˚ 60 nm 198 nm 312° / 312° BRADSHAW NDB
TIKAL FIX A517 (AWY-LO) 0 ft / 0 m 17.47381˚ -62.81800˚ 11 nm 209 nm 338° / 338° -
O TNCM APT - 0 ft / 0 m 18.04089˚ -63.10897˚ 37 nm 247 nm 334° / 334° St Maarten - Princess Juliana Intl

Altitude Profile

Advertisement - Login to hide

Weather


0- 5 10 15 20 25 30 35+ Temperature / ° C

Clouds and Precipitation
Forecast for 2017-12-12 12:00 UTC. Updated 23 minutes ago

Ground ~20,000 ft ~40,000 ft Winds

TFFF

Details ICAO TFFF (FDF)
Name Martinique/Aime Cesaire Intl
Region France (Guadeloupe, Martinique, Saint Barthélemy, Saint Martin)
Timezone America/Martinique (UTC-4.0)
Stats Elevation 16 ft / 5 m (AMSL)
Location 14.591032° -61.003173°
Runways 1
Magnetic Variation 15.058° W

METAR

TFFF 121130Z AUTO 13003KT 9999 FEW029 23/22 Q1014 TEMPO 4000 -SHRA FEW015TCU

Decode

TAF

TAF TFFF 120500Z 1206/1306 CNL

Decode

Departure Runways

ID Width Length Bearing (true) Bearing (mag) Surface Threshold Offset Overrun Length
09 148 ft / 45 m 9,852 ft / 3,003 m 79.93° 94.99° Asphalt 0 ft / 0 m 0 ft / 0 m
27 148 ft / 45 m 9,852 ft / 3,003 m 259.94° 275.00° Asphalt 820 ft / 250 m 948 ft / 289 m

TNCM

Details ICAO TNCM (SXM)
Name St Maarten - Princess Juliana Intl
Region Caribbean Netherlands, Aruba, Curaçao, Sint Maarten
Timezone Unknown (UTC+0.0)
Stats Elevation 12 ft / 4 m (AMSL)
Location 18.040889° -63.108974°
Runways 1
Magnetic Variation 14.325° W

METAR

TNCM 121100Z 07004KT 9999 FEW018 24/21 Q1014 A2994 NOSIG

Decode

TAF

TNCM 120535Z 1206/1306 VRB05KT P6SM SCT020 FM121430 14010KT P6SM SCT022

Decode

Destination Runways

ID Width Length Bearing (true) Bearing (mag) Surface Threshold Offset Overrun Length
10 148 ft / 45 m 7,464 ft / 2,275 m 81.43° 95.75° Asphalt 0 ft / 0 m 151 ft / 46 m
28 148 ft / 45 m 7,464 ft / 2,275 m 261.44° 275.76° Asphalt 397 ft / 121 m 0 ft / 0 m

Popular Alternatives